Terminal Aerodrome Forecast
Issued by NWS

Home | Current Version | Previous Version | Graphics & Text | Print | Product List | Glossary On
Versions: 1 2 3 4 5 6 7 8 9 10 11 12
000
FTUS43 KMPX 171739
TAFAXN
TAF
KAXN 171739Z 1718/1818 VRB04KT P6SM OVC090
     FM171900 31005KT P6SM OVC120
     FM180000 34009KT P6SM OVC150
     FM181400 32012G20KT P6SM FEW200=

USA.gov is the U.S. government's official web portal to all federal, state and local government web resources and services.